Time;durP1;ratioP1;P1;durP2;ratioP2;P2;SDS_P1;SDS_P2;PMS_P1;PMS_P2;Temp;Humidity;BMP_temperature;BMP_pressure;BME280_temperature;BME280_humidity;BME280_pressure;Samples;Min_cycle;Max_cycle;Signal;HPM_P1;HPM_P2
2021/01/01 00:01:47;;;;;;;568.55;351.08;;;;;;;3.93;68.23;100750.03;4941116;28;20082;-77
2021/01/01 00:04:14;;;;;;;528.88;304.77;;;;;;;3.96;68.16;100742.22;4952131;28;20482;-78
2021/01/01 00:06:46;;;;;;;509.42;289.75;;;;;;;4.05;68.72;100749.25;4940453;28;20032;-75
2021/01/01 00:09:13;;;;;;;483.23;257.13;;;;;;;4.04;69.40;100753.59;4942130;28;20698;-79
2021/01/01 00:11:40;;;;;;;458.88;244.23;;;;;;;4.15;68.71;100750.13;4947581;28;20031;-78
2021/01/01 00:14:07;;;;;;;479.40;256.50;;;;;;;4.19;68.35;100747.53;4943978;28;20501;-78
2021/01/01 00:16:34;;;;;;;494.00;267.00;;;;;;;4.20;69.03;100748.44;4949397;28;20111;-78
2021/01/01 00:19:00;;;;;;;527.92;288.65;;;;;;;4.20;69.02;100749.31;4949249;28;20031;-81
2021/01/01 00:21:31;;;;;;;572.90;310.05;;;;;;;4.23;69.11;100752.81;4949349;28;20071;-79
2021/01/01 00:23:58;;;;;;;679.97;380.30;;;;;;;4.20;69.42;100751.94;4947301;28;20094;-78
2021/01/01 00:26:24;;;;;;;535.72;312.02;;;;;;;4.24;68.86;100754.56;4947605;28;20031;-79
2021/01/01 00:28:51;;;;;;;580.67;324.00;;;;;;;4.23;68.93;100752.81;4951389;28;20058;-79
2021/01/01 00:31:30;;;;;;;583.45;333.50;;;;;;;4.26;68.35;100761.59;4945513;28;20045;-78
2021/01/01 00:34:03;;;;;;;607.28;339.85;;;;;;;4.18;68.47;100761.53;4949517;28;20391;-79
2021/01/01 00:36:30;;;;;;;683.13;375.95;;;;;;;4.14;68.67;100754.53;4950059;28;20102;-80
2021/01/01 00:38:56;;;;;;;636.10;366.13;;;;;;;4.19;68.62;100751.94;4947448;28;20031;-78
2021/01/01 00:41:26;;;;;;;700.00;387.85;;;;;;;4.21;68.87;100751.06;4945886;29;20074;-78
2021/01/01 00:43:54;;;;;;;673.15;390.75;;;;;;;4.19;68.83;100752.78;4952607;28;20502;-78
2021/01/01 00:46:22;;;;;;;792.55;436.95;;;;;;;4.19;69.24;100752.78;4941506;28;20098;-79
2021/01/01 00:48:49;;;;;;;711.10;410.50;;;;;;;4.16;68.80;100751.91;4953668;28;20035;-79
2021/01/01 00:51:23;;;;;;;755.47;431.63;;;;;;;4.15;69.51;100747.50;4948087;28;20039;-78
2021/01/01 00:53:49;;;;;;;777.30;432.10;;;;;;;4.19;69.64;100758.03;4941670;28;20028;-78
2021/01/01 00:56:25;;;;;;;743.33;418.88;;;;;;;4.32;69.44;100758.09;4956054;28;20094;-78
2021/01/01 00:58:52;;;;;;;795.95;431.42;;;;;;;4.28;69.34;100754.56;4957045;28;20015;-79
2021/01/01 01:01:22;;;;;;;757.42;416.70;;;;;;;4.27;68.64;100757.19;4957649;28;20313;-79
2021/01/01 01:03:51;;;;;;;744.95;418.33;;;;;;;4.27;68.41;100763.31;4948672;28;20034;-80
2021/01/01 01:06:18;;;;;;;698.50;399.83;;;;;;;4.20;68.55;100759.78;4949586;28;20090;-80
2021/01/01 01:08:44;;;;;;;735.58;393.48;;;;;;;4.21;69.02;100756.31;4943253;28;20035;-80
2021/01/01 01:11:12;;;;;;;717.80;390.70;;;;;;;4.24;68.87;100758.06;4945653;28;20087;-78
2021/01/01 01:13:38;;;;;;;650.97;354.85;;;;;;;4.28;68.91;100767.69;4944969;28;20121;-78
2021/01/01 01:16:06;;;;;;;645.13;356.08;;;;;;;4.31;69.48;100761.59;4952111;28;20094;-79
2021/01/01 01:18:32;;;;;;;688.17;372.88;;;;;;;4.32;69.97;100765.97;4941099;28;20032;-79
2021/01/01 01:20:59;;;;;;;762.55;394.40;;;;;;;4.35;70.02;100768.63;4950869;28;20074;-80
2021/01/01 01:23:26;;;;;;;650.50;343.50;;;;;;;4.39;70.33;100765.13;4941353;28;20031;-80
2021/01/01 01:25:52;;;;;;;597.38;324.08;;;;;;;4.40;70.23;100766.88;4943089;28;20024;-80
2021/01/01 01:28:19;;;;;;;611.63;322.33;;;;;;;4.40;70.13;100761.63;4939091;28;20063;-79
2021/01/01 01:30:45;;;;;;;588.53;305.58;;;;;;;4.40;70.06;100766.00;4952132;28;20031;-80
2021/01/01 01:33:11;;;;;;;589.25;305.73;;;;;;;4.39;69.75;100773.00;4946777;28;20498;-79
2021/01/01 01:35:38;;;;;;;557.38;290.27;;;;;;;4.35;70.10;100773.88;4942082;28;20095;-79
2021/01/01 01:38:05;;;;;;;551.75;286.95;;;;;;;4.36;69.89;100772.97;4939285;28;20052;-80
2021/01/01 01:40:32;;;;;;;531.20;278.65;;;;;;;4.37;69.73;100774.72;4952298;28;20027;-80
2021/01/01 01:42:58;;;;;;;511.10;258.70;;;;;;;4.37;69.63;100773.00;4938435;28;20032;-80
2021/01/01 01:45:25;;;;;;;535.28;274.08;;;;;;;4.37;69.11;100782.59;4938781;28;20028;-81
2021/01/01 01:47:52;;;;;;;509.63;261.27;;;;;;;4.33;68.81;100786.94;4937855;28;20034;-80
2021/01/01 01:50:18;;;;;;;502.63;251.65;;;;;;;4.31;69.13;100783.47;4944849;28;20019;-80
2021/01/01 01:52:47;;;;;;;502.38;253.38;;;;;;;4.29;69.00;100786.94;4948780;28;20376;-80
2021/01/01 01:55:14;;;;;;;534.10;264.02;;;;;;;4.25;69.06;100790.41;4942552;28;20063;-82
2021/01/01 01:57:41;;;;;;;524.00;264.08;;;;;;;4.24;68.87;100786.03;4941753;28;20019;-79
2021/01/01 02:02:56;;;;;;;445.33;231.82;;;;;;;4.15;68.87;100785.13;4952109;28;20050;-79
2021/01/01 02:05:24;;;;;;;481.92;247.60;;;;;;;4.08;69.04;100785.09;4949510;28;20038;-80
2021/01/01 02:07:50;;;;;;;457.52;228.68;;;;;;;4.02;68.82;100783.28;4950234;28;20122;-80
2021/01/01 02:10:19;;;;;;;454.50;224.57;;;;;;;4.00;69.32;100782.41;4944317;28;20384;-80
2021/01/01 02:12:47;;;;;;;434.10;216.07;;;;;;;3.98;68.98;100789.41;4963868;23;20110;-83
2021/01/01 02:15:14;;;;;;;465.95;225.85;;;;;;;3.93;69.23;100793.75;4949662;28;20027;-84
2021/01/01 02:17:41;;;;;;;478.70;232.90;;;;;;;3.93;69.31;100796.34;4952424;28;20023;-83
2021/01/01 02:20:11;;;;;;;426.08;216.43;;;;;;;3.96;69.51;100786.78;4954737;28;20390;-84
2021/01/01 02:22:39;;;;;;;491.55;245.23;;;;;;;3.95;69.04;100794.59;4952332;28;20066;-83
2021/01/01 02:25:09;;;;;;;506.48;246.13;;;;;;;3.95;69.42;100797.22;4948765;29;20035;-85
2021/01/01 02:27:38;;;;;;;438.35;226.05;;;;;;;4.00;69.23;100798.13;4944548;29;20039;-90
2021/01/01 02:30:05;;;;;;;485.98;238.13;;;;;;;4.02;69.39;100799.88;4934779;28;20038;-84
2021/01/01 02:32:32;;;;;;;461.70;223.05;;;;;;;4.03;69.66;100800.78;4952286;28;20522;-84
2021/01/01 02:34:59;;;;;;;495.35;235.60;;;;;;;4.03;69.28;100801.66;4952317;28;20063;-84
2021/01/01 02:37:26;;;;;;;475.38;228.43;;;;;;;4.03;69.65;100804.28;4949998;28;20039;-84
2021/01/01 02:39:52;;;;;;;480.83;222.48;;;;;;;4.08;69.60;100801.69;4942257;28;20032;-83
2021/01/01 02:42:19;;;;;;;443.05;205.80;;;;;;;4.09;69.42;100803.44;4935769;29;20114;-83
2021/01/01 02:44:47;;;;;;;432.27;204.13;;;;;;;4.13;70.17;100810.44;4939062;29;20038;-83
2021/01/01 02:47:15;;;;;;;416.63;195.40;;;;;;;4.19;69.93;100807.88;4938992;29;20082;-84
2021/01/01 02:49:43;;;;;;;411.30;193.50;;;;;;;4.24;69.84;100807.00;4935825;29;20038;-84
2021/01/01 02:52:09;;;;;;;474.70;214.88;;;;;;;4.26;70.17;100810.53;4936060;29;20028;-85
2021/01/01 02:54:36;;;;;;;407.05;187.77;;;;;;;4.32;69.81;100810.56;4935696;29;20124;-84
2021/01/01 02:57:02;;;;;;;403.15;195.88;;;;;;;4.36;69.64;100814.94;4935382;29;20068;-84
2021/01/01 02:59:28;;;;;;;408.63;195.93;;;;;;;4.37;69.91;100814.06;4935770;29;20035;-83
2021/01/01 03:01:55;;;;;;;439.65;207.63;;;;;;;4.33;70.28;100812.31;4936003;29;20023;-84
2021/01/01 03:04:22;;;;;;;438.65;205.02;;;;;;;4.38;69.88;100815.84;4935666;29;20127;-83
2021/01/01 03:06:48;;;;;;;397.48;191.38;;;;;;;4.36;70.10;100812.31;4935880;29;20028;-83
2021/01/01 03:09:14;;;;;;;372.63;179.30;;;;;;;4.37;69.74;100808.81;4935615;29;20035;-83
2021/01/01 03:11:41;;;;;;;418.00;204.57;;;;;;;4.38;70.06;100813.22;4934272;29;20032;-83
2021/01/01 03:14:15;;;;;;;412.35;199.15;;;;;;;4.42;69.96;100808.84;4936234;29;20522;-83
2021/01/01 03:16:49;;;;;;;388.60;191.50;;;;;;;4.47;69.73;100809.75;4935766;29;20063;-81
2021/01/01 03:19:26;;;;;;;421.15;190.05;;;;;;;4.44;70.12;100809.75;4937042;29;20122;-82
2021/01/01 03:21:59;;;;;;;345.48;173.65;;;;;;;4.42;70.20;100804.47;4936533;29;20502;-81
2021/01/01 03:24:25;;;;;;;373.83;180.05;;;;;;;4.41;70.02;100810.63;4935709;29;20042;-83
2021/01/01 03:26:52;;;;;;;377.48;179.13;;;;;;;4.41;70.37;100800.13;4935660;29;20024;-83
2021/01/01 03:29:18;;;;;;;377.55;173.35;;;;;;;4.40;70.17;100802.72;4930140;29;20052;-84
2021/01/01 03:31:44;;;;;;;339.10;158.30;;;;;;;4.39;70.05;100801.84;4951901;29;20538;-84
2021/01/01 03:34:11;;;;;;;338.55;157.68;;;;;;;4.37;69.44;100803.59;4954299;28;20035;-84
2021/01/01 03:36:37;;;;;;;317.98;148.63;;;;;;;4.34;69.57;100803.59;4954681;28;20023;-84
2021/01/01 03:39:04;;;;;;;313.65;148.90;;;;;;;4.30;69.71;100807.94;4954677;28;20069;-84
2021/01/01 03:41:30;;;;;;;319.08;149.18;;;;;;;4.31;70.05;100798.31;4954951;28;20055;-83
2021/01/01 03:43:56;;;;;;;299.25;139.05;;;;;;;4.37;69.97;100800.97;4954432;28;20059;-83
2021/01/01 03:46:23;;;;;;;281.88;133.10;;;;;;;4.40;69.44;100800.09;4954507;28;20031;-83
2021/01/01 03:48:49;;;;;;;273.80;135.15;;;;;;;4.42;69.82;100804.47;4954352;28;20158;-84
2021/01/01 03:51:16;;;;;;;265.70;126.45;;;;;;;4.42;69.65;100796.59;4953455;29;20449;-84
2021/01/01 03:53:42;;;;;;;274.85;132.82;;;;;;;4.47;69.88;100801.88;4954461;28;20046;-83
2021/01/01 03:56:11;;;;;;;258.77;128.18;;;;;;;4.50;69.79;100800.16;4954493;28;20035;-85
2021/01/01 03:58:37;;;;;;;296.48;130.40;;;;;;;4.47;69.64;100800.13;4954097;28;20086;-83
2021/01/01 04:01:04;;;;;;;258.75;123.40;;;;;;;4.46;69.25;100801.03;4954551;28;20031;-83
2021/01/01 04:03:30;;;;;;;287.02;132.57;;;;;;;4.44;69.86;100802.75;4953882;28;20031;-83
2021/01/01 04:05:56;;;;;;;267.38;125.70;;;;;;;4.43;69.61;100801.00;4954307;28;20031;-83
2021/01/01 04:08:23;;;;;;;287.27;131.63;;;;;;;4.45;70.00;100801.88;4954707;28;20027;-84
2021/01/01 04:10:49;;;;;;;281.17;126.75;;;;;;;4.46;70.00;100802.75;4957997;28;20055;-83
2021/01/01 04:13:15;;;;;;;259.52;123.25;;;;;;;4.46;69.74;100800.13;4958045;28;20135;-83
2021/01/01 04:15:42;;;;;;;266.17;119.03;;;;;;;4.45;69.62;100795.75;4957831;28;20031;-84
2021/01/01 04:18:08;;;;;;;248.93;117.32;;;;;;;4.45;69.86;100801.88;4958286;28;20032;-83
2021/01/01 04:20:35;;;;;;;258.00;120.15;;;;;;;4.48;70.02;100801.88;4957771;28;20031;-83
2021/01/01 04:23:01;;;;;;;247.93;117.78;;;;;;;4.48;69.87;100795.78;4958236;28;20047;-84
2021/01/01 04:25:27;;;;;;;264.92;119.47;;;;;;;4.46;69.95;100803.66;4957785;28;20090;-83
2021/01/01 04:27:54;;;;;;;270.25;119.95;;;;;;;4.46;70.27;100797.50;4931587;29;20422;-83
2021/01/01 04:30:20;;;;;;;259.85;117.28;;;;;;;4.46;70.15;100803.66;4957795;28;20028;-83
2021/01/01 04:32:46;;;;;;;238.27;111.13;;;;;;;4.47;70.25;100796.63;4957943;28;20074;-83
2021/01/01 04:35:13;;;;;;;253.02;118.78;;;;;;;4.46;70.18;100798.41;4957763;28;20064;-83
2021/01/01 04:37:39;;;;;;;259.05;113.13;;;;;;;4.48;70.37;100801.88;4957840;28;20178;-83
2021/01/01 04:40:06;;;;;;;245.43;112.57;;;;;;;4.46;70.41;100803.66;4943601;28;20512;-84
2021/01/01 04:42:33;;;;;;;248.93;111.40;;;;;;;4.47;70.31;100799.25;4919578;29;20028;-84
2021/01/01 04:44:59;;;;;;;251.02;107.53;;;;;;;4.46;70.20;100798.41;4956830;29;20023;-83
2021/01/01 04:47:27;;;;;;;227.43;102.72;;;;;;;4.42;69.96;100799.22;4957876;28;20039;-84
2021/01/01 04:49:54;;;;;;;208.23;97.20;;;;;;;4.45;70.48;100806.22;4957270;29;20042;-84
2021/01/01 04:52:22;;;;;;;234.75;102.68;;;;;;;4.50;70.19;100805.41;4945652;28;20040;-83
2021/01/01 04:54:49;;;;;;;194.40;90.25;;;;;;;4.49;70.60;100806.25;4954288;29;20114;-84
2021/01/01 04:57:15;;;;;;;182.25;87.53;;;;;;;4.52;70.13;100803.66;4957436;28;20028;-83
2021/01/01 04:59:41;;;;;;;202.85;92.10;;;;;;;4.50;70.40;100802.78;4957383;28;20126;-83
2021/01/01 05:02:07;;;;;;;212.90;95.95;;;;;;;4.50;70.09;100810.66;4957775;28;20061;-84
2021/01/01 05:04:33;;;;;;;179.05;84.93;;;;;;;4.48;70.08;100808.88;4957464;28;20031;-83
2021/01/01 05:07:00;;;;;;;189.10;84.80;;;;;;;4.52;69.96;100805.41;4957412;28;20034;-84
2021/01/01 05:09:26;;;;;;;175.43;80.57;;;;;;;4.49;69.98;100816.75;4956975;28;20118;-84
2021/01/01 05:12:07;;;;;;;182.93;82.63;;;;;;;4.64;70.10;100817.72;4955104;28;20497;-85
2021/01/01 05:14:33;;;;;;;185.85;82.85;;;;;;;4.56;69.73;100814.16;4948423;29;20031;-85
2021/01/01 05:17:00;;;;;;;182.05;79.90;;;;;;;4.50;69.91;100823.78;4957109;28;20110;-84
2021/01/01 05:19:36;;;;;;;154.10;72.60;;;;;;;4.50;70.21;100818.53;4955533;29;20522;-84
2021/01/01 05:22:05;;;;;;;187.27;82.72;;;;;;;4.39;70.11;100814.97;4956314;28;20146;-83
2021/01/01 05:27:18;;;;;;;163.88;80.80;;;;;;;4.49;70.20;100818.53;5071148;27;20716;-82
2021/01/01 05:29:53;;;;;;;151.57;68.75;;;;;;;4.52;69.75;100816.78;5059835;28;20037;-82
2021/01/01 05:32:28;;;;;;;136.70;65.03;;;;;;;4.45;69.66;100816.72;5049615;28;20021;-83
2021/01/01 05:34:57;;;;;;;126.03;57.75;;;;;;;4.45;70.26;100822.88;5049714;28;20044;-83
2021/01/01 05:37:34;;;;;;;130.80;59.25;;;;;;;4.52;70.12;100824.66;5049585;28;20037;-82
2021/01/01 05:40:03;;;;;;;120.55;54.33;;;;;;;4.41;70.34;100820.22;5049261;28;20030;-83
2021/01/01 05:42:31;;;;;;;107.22;50.10;;;;;;;4.44;70.29;100815.88;5049562;28;20043;-83
2021/01/01 05:44:57;;;;;;;107.18;49.42;;;;;;;4.47;70.29;100826.34;5048728;28;20033;-83
2021/01/01 05:47:23;;;;;;;105.85;48.65;;;;;;;4.46;70.17;100818.50;5049414;28;20495;-83
2021/01/01 05:49:49;;;;;;;102.15;48.03;;;;;;;4.47;70.23;100825.50;5049087;28;20120;-83
2021/01/01 05:52:20;;;;;;;104.05;46.50;;;;;;;4.54;69.99;100822.03;5049192;28;20135;-83
2021/01/01 05:54:49;;;;;;;83.45;41.03;;;;;;;4.54;70.00;100824.66;5049053;28;20033;-83
2021/01/01 05:57:16;;;;;;;95.40;42.50;;;;;;;4.51;69.94;100828.16;5043442;28;20112;-84
2021/01/01 05:59:46;;;;;;;99.45;44.75;;;;;;;4.61;69.83;100830.81;5043511;28;20033;-84
2021/01/01 06:02:13;;;;;;;94.90;44.95;;;;;;;4.59;69.66;100832.56;5049078;28;20037;-83
2021/01/01 06:04:40;;;;;;;99.80;44.92;;;;;;;4.58;69.69;100828.19;5048791;28;20061;-84
2021/01/01 06:07:10;;;;;;;89.13;41.50;;;;;;;4.62;69.27;100840.44;5048923;28;20029;-83
2021/01/01 06:09:37;;;;;;;101.70;45.97;;;;;;;4.59;69.80;100835.19;5048646;28;20036;-83
2021/01/01 06:14:45;;;;;;;82.05;39.72;;;;;;;4.54;69.61;100833.41;5070718;28;20220;-84
2021/01/01 06:19:57;;;;;;;82.60;37.50;;;;;;;4.46;69.74;100835.13;5150678;27;20759;-83
2021/01/01 06:25:04;;;;;;;70.40;31.73;;;;;;;4.50;69.50;100830.78;5070805;27;20879;-84
2021/01/01 06:27:32;;;;;;;62.28;30.50;;;;;;;4.56;69.81;100835.16;5049817;28;20484;-84
2021/01/01 06:32:42;;;;;;;59.25;28.02;;;;;;;4.53;69.49;100849.13;5108525;27;20367;-83
2021/01/01 06:35:24;;;;;;;66.47;29.95;;;;;;;4.62;69.64;100845.69;5089437;28;20060;-83
2021/01/01 06:37:54;;;;;;;61.20;27.50;;;;;;;4.54;69.35;100850.91;5088803;28;20024;-84
2021/01/01 06:43:06;;;;;;;52.58;24.65;;;;;;;4.54;69.54;100856.16;5060100;27;20410;-83
2021/01/01 06:51:14;;;;;;;50.25;23.08;;;;;;;4.54;69.65;100862.25;5073847;27;20419;-84
2021/01/01 06:53:42;;;;;;;48.80;23.35;;;;;;;4.52;69.31;100860.50;5042457;28;20108;-84
2021/01/01 06:56:10;;;;;;;47.30;22.55;;;;;;;4.52;69.79;100865.75;5028769;28;20040;-85
2021/01/01 06:58:37;;;;;;;44.22;22.48;;;;;;;4.53;69.32;100862.25;5029432;28;20040;-85
2021/01/01 07:01:13;;;;;;;46.42;22.83;;;;;;;4.54;69.66;100869.28;5029875;28;20061;-85
2021/01/01 07:03:40;;;;;;;46.92;21.45;;;;;;;4.52;69.57;100868.38;5029333;28;20030;-84
2021/01/01 07:08:47;;;;;;;34.38;18.33;;;;;;;4.47;69.33;100873.59;5048733;28;20373;-84
2021/01/01 07:11:34;;;;;;;34.30;16.80;;;;;;;4.56;69.68;100875.41;5049741;28;20471;-84
2021/01/01 07:16:46;;;;;;;39.85;17.70;;;;;;;4.48;69.82;100877.97;5090076;27;20352;-83
2021/01/01 07:19:14;;;;;;;36.22;16.63;;;;;;;4.47;69.82;100873.59;5075367;28;20030;-85
2021/01/01 07:21:40;;;;;;;35.92;16.52;;;;;;;4.51;69.97;100874.47;5089638;28;20059;-84
2021/01/01 07:24:07;;;;;;;32.95;16.95;;;;;;;4.51;70.26;100879.72;5089656;28;20025;-86
2021/01/01 07:26:33;;;;;;;31.55;16.40;;;;;;;4.53;69.97;100884.13;5089612;28;20036;-83
2021/01/01 07:29:02;;;;;;;28.92;15.05;;;;;;;4.61;70.12;100883.28;5089708;28;20091;-83
2021/01/01 07:31:28;;;;;;;33.20;15.15;;;;;;;4.64;69.90;100893.81;5077769;28;20356;-84
2021/01/01 07:33:55;;;;;;;32.47;15.05;;;;;;;4.65;70.23;100880.69;5066898;28;20387;-84
2021/01/01 07:36:22;;;;;;;27.40;13.88;;;;;;;4.64;70.39;100885.94;5066333;28;20463;-83
2021/01/01 07:38:49;;;;;;;26.85;13.38;;;;;;;4.59;70.30;100887.66;5071778;28;20039;-83
2021/01/01 07:41:18;;;;;;;26.75;13.63;;;;;;;4.63;70.30;100890.28;5043728;28;20364;-83
2021/01/01 07:43:44;;;;;;;26.17;12.65;;;;;;;4.66;70.37;100894.69;5054918;28;20029;-83
2021/01/01 07:46:11;;;;;;;21.33;11.77;;;;;;;4.67;70.74;100885.94;5063376;28;20037;-84
2021/01/01 07:48:38;;;;;;;21.45;12.13;;;;;;;4.77;70.13;100893.00;5050706;28;20028;-84
2021/01/01 07:51:07;;;;;;;25.60;13.90;;;;;;;4.82;70.03;100898.25;5058636;28;20407;-83
2021/01/01 07:53:34;;;;;;;22.48;12.13;;;;;;;4.83;70.31;100903.50;5052739;28;20033;-83
2021/01/01 07:56:05;;;;;;;23.02;12.65;;;;;;;4.84;70.34;100894.78;5063897;28;20028;-83
2021/01/01 07:58:32;;;;;;;20.85;10.90;;;;;;;4.85;70.38;100898.28;5074970;28;20033;-83
2021/01/01 08:01:13;;;;;;;22.20;12.05;;;;;;;4.92;70.39;100893.94;5072272;28;20025;-84
2021/01/01 08:03:40;;;;;;;20.88;11.18;;;;;;;4.86;70.59;100898.28;5081316;28;20093;-83
2021/01/01 08:06:08;;;;;;;19.48;11.05;;;;;;;4.96;70.35;100903.56;5077542;28;20120;-85
2021/01/01 08:08:35;;;;;;;22.33;11.57;;;;;;;4.96;70.61;100904.47;5084694;28;20044;-82
2021/01/01 08:11:02;;;;;;;22.35;11.15;;;;;;;4.94;70.36;100905.31;5080778;28;20541;-82
2021/01/01 08:13:31;;;;;;;26.25;11.60;;;;;;;5.03;70.08;100900.09;5082354;22;20040;-78
2021/01/01 08:16:09;;;;;;;19.88;11.15;;;;;;;5.02;70.24;100903.59;5067969;28;20373;-77
2021/01/01 08:18:35;;;;;;;22.17;10.38;;;;;;;5.08;69.80;100905.38;5067830;28;20033;-79
2021/01/01 08:21:03;;;;;;;20.77;11.32;;;;;;;5.04;70.28;100912.38;5068288;28;20090;-81
2021/01/01 08:23:45;;;;;;;19.77;11.65;;;;;;;5.04;70.26;100907.13;5053083;28;20037;-80
2021/01/01 08:26:12;;;;;;;24.45;12.20;;;;;;;5.04;70.29;100912.38;5045396;28;20083;-79
2021/01/01 08:28:40;;;;;;;20.67;11.38;;;;;;;5.07;70.62;100915.03;5036184;28;20087;-79
2021/01/01 08:31:09;;;;;;;22.25;10.95;;;;;;;5.10;70.45;100908.91;5036707;28;20045;-79
2021/01/01 08:33:40;;;;;;;23.98;12.15;;;;;;;5.12;70.60;100920.25;5034618;28;20437;-81
2021/01/01 08:36:08;;;;;;;22.75;11.07;;;;;;;5.16;70.55;100922.91;5034911;28;20053;-79
2021/01/01 08:38:36;;;;;;;22.13;11.48;;;;;;;5.19;70.31;100922.91;5035512;28;20105;-78
2021/01/01 08:41:03;;;;;;;18.08;10.32;;;;;;;5.25;70.09;100923.84;5037669;28;20024;-78
2021/01/01 08:43:29;;;;;;;20.45;10.82;;;;;;;5.31;69.97;100926.47;5045440;28;20041;-78
2021/01/01 08:45:56;;;;;;;19.60;11.57;;;;;;;5.37;69.92;100929.13;5048720;28;20048;-78
2021/01/01 08:48:29;;;;;;;18.35;10.95;;;;;;;5.44;69.87;100928.25;5046969;28;20030;-79
2021/01/01 08:50:56;;;;;;;21.77;11.13;;;;;;;5.47;70.09;100933.53;5033809;28;20091;-80
2021/01/01 08:53:22;;;;;;;32.65;13.60;;;;;;;5.49;70.26;100934.38;5033112;28;20385;-81
2021/01/01 08:55:58;;;;;;;18.70;10.30;;;;;;;5.62;70.09;100942.31;5034718;28;20037;-82
2021/01/01 08:58:24;;;;;;;46.28;28.58;;;;;;;5.60;70.24;100938.81;5034592;28;20025;-82
2021/01/01 09:00:50;;;;;;;24.30;13.10;;;;;;;5.63;70.24;100946.69;5034395;28;20056;-80
2021/01/01 09:03:18;;;;;;;22.50;12.05;;;;;;;5.66;70.31;100939.69;5039393;28;20045;-80
2021/01/01 09:05:45;;;;;;;21.02;11.95;;;;;;;5.71;70.16;100947.59;5033837;28;20083;-80
2021/01/01 09:08:14;;;;;;;19.95;10.55;;;;;;;5.76;70.03;100951.09;5034385;28;20026;-81
2021/01/01 09:10:43;;;;;;;19.00;10.25;;;;;;;5.76;69.92;100951.09;5035994;28;20116;-82
2021/01/01 09:13:26;;;;;;;18.77;11.15;;;;;;;5.83;69.61;100951.97;5035833;28;20080;-81
2021/01/01 09:16:04;;;;;;;18.27;10.38;;;;;;;5.81;69.27;100949.34;5035660;28;20045;-80
2021/01/01 09:18:31;;;;;;;21.17;10.60;;;;;;;5.78;69.96;100954.63;5032508;28;20673;-81
2021/01/01 09:21:16;;;;;;;21.85;11.32;;;;;;;5.88;69.51;100955.50;5026459;28;20121;-80
2021/01/01 09:23:50;;;;;;;21.92;11.02;;;;;;;5.80;69.89;100962.50;5015521;28;20037;-81
2021/01/01 09:26:23;;;;;;;22.98;9.95;;;;;;;5.85;69.64;100965.16;5034087;28;20041;-81
2021/01/01 09:28:59;;;;;;;20.40;10.02;;;;;;;5.80;70.02;100960.72;5032718;28;20082;-82
2021/01/01 09:31:25;;;;;;;20.50;11.57;;;;;;;5.87;69.80;100963.38;5025389;28;20381;-80
2021/01/01 09:34:08;;;;;;;22.63;9.63;;;;;;;5.99;69.56;100966.06;5034230;28;20033;-82
2021/01/01 09:36:37;;;;;;;27.35;15.85;;;;;;;5.94;70.01;100965.16;5022093;28;20045;-83
2021/01/01 09:39:06;;;;;;;23.27;12.07;;;;;;;6.00;69.71;100970.44;5035867;28;20025;-81
2021/01/01 09:41:34;;;;;;;26.02;13.50;;;;;;;5.81;70.47;100965.13;5035448;28;20099;-81
2021/01/01 09:44:00;;;;;;;19.38;10.82;;;;;;;5.60;71.34;100970.34;5034340;28;20068;-80
2021/01/01 09:46:26;;;;;;;17.65;9.82;;;;;;;6.00;69.94;100975.69;5017162;28;20040;-80
2021/01/01 09:48:52;;;;;;;17.70;9.90;;;;;;;6.03;69.70;100972.19;5028813;28;20105;-79
2021/01/01 09:51:18;;;;;;;16.13;9.60;;;;;;;6.08;69.70;100971.34;5033836;28;20032;-79
2021/01/01 09:53:44;;;;;;;17.50;8.95;;;;;;;6.10;69.54;100974.81;5042502;28;20075;-80
2021/01/01 09:56:10;;;;;;;21.63;10.05;;;;;;;6.06;69.70;100974.84;5042822;28;20037;-80
2021/01/01 09:58:36;;;;;;;17.00;8.88;;;;;;;6.12;69.49;100975.72;5024870;28;20060;-80
2021/01/01 10:01:03;;;;;;;16.73;9.55;;;;;;;6.12;69.49;100978.34;5036333;28;20063;-80
2021/01/01 10:03:29;;;;;;;15.27;9.57;;;;;;;6.15;69.17;100980.97;5045062;28;20086;-79
2021/01/01 10:05:55;;;;;;;15.43;8.95;;;;;;;6.11;69.27;100983.63;5044015;28;20029;-79
2021/01/01 10:08:21;;;;;;;14.38;9.10;;;;;;;6.09;69.20;100985.34;5037847;28;20112;-76
2021/01/01 10:10:47;;;;;;;13.48;8.23;;;;;;;6.13;68.97;100984.47;5036996;28;20485;-79
2021/01/01 10:13:14;;;;;;;21.85;11.73;;;;;;;6.13;69.02;100988.00;5032065;28;20036;-80
2021/01/01 10:15:40;;;;;;;99.38;47.17;;;;;;;6.09;69.01;100986.25;5037053;28;20065;-80
2021/01/01 10:18:07;;;;;;;27.38;12.52;;;;;;;6.05;69.13;100989.72;5040171;28;20524;-81
2021/01/01 10:20:35;;;;;;;23.33;11.45;;;;;;;6.10;68.90;100987.97;5026337;28;20090;-83
2021/01/01 10:23:02;;;;;;;16.15;9.75;;;;;;;6.08;68.98;100989.75;5031693;28;20033;-80
2021/01/01 10:25:28;;;;;;;16.55;9.05;;;;;;;6.14;69.07;100994.13;5049350;28;20078;-81
2021/01/01 10:27:54;;;;;;;18.73;9.50;;;;;;;6.09;69.21;100988.88;5047626;28;20424;-80
2021/01/01 10:30:21;;;;;;;19.52;10.48;;;;;;;6.17;69.31;100993.25;5047450;28;20033;-81
2021/01/01 10:32:47;;;;;;;16.42;9.13;;;;;;;6.20;69.12;100988.00;5040585;28;20033;-82
2021/01/01 10:35:13;;;;;;;20.15;10.15;;;;;;;6.27;69.25;100989.75;5043280;28;20040;-80
2021/01/01 10:37:39;;;;;;;20.20;9.98;;;;;;;6.30;69.34;100980.09;5034091;28;20108;-81
2021/01/01 10:40:06;;;;;;;18.98;11.25;;;;;;;6.38;69.39;100987.09;5040970;28;20457;-82
2021/01/01 10:42:32;;;;;;;16.33;10.73;;;;;;;6.45;69.34;100976.56;5041261;28;20038;-80
2021/01/01 10:44:59;;;;;;;21.75;10.25;;;;;;;6.53;69.44;100975.69;5031487;28;20428;-81
2021/01/01 10:47:25;;;;;;;18.83;10.90;;;;;;;6.57;69.69;100980.09;5032644;28;20030;-82
2021/01/01 10:49:51;;;;;;;18.20;10.10;;;;;;;6.59;69.97;100979.22;5038710;28;20485;-82
2021/01/01 10:52:17;;;;;;;17.75;10.77;;;;;;;6.71;69.50;100978.31;5037001;28;20029;-82
2021/01/01 10:54:43;;;;;;;21.83;11.68;;;;;;;6.79;69.59;100968.63;5034366;28;20492;-81
2021/01/01 10:57:09;;;;;;;21.83;11.40;;;;;;;6.88;69.73;100975.63;5033037;28;20389;-81
2021/01/01 10:59:36;;;;;;;18.33;10.65;;;;;;;6.96;69.27;100975.63;5034290;28;20034;-80
2021/01/01 11:02:02;;;;;;;18.13;11.35;;;;;;;6.95;69.40;100981.75;5031034;28;20029;-80
2021/01/01 11:04:28;;;;;;;20.40;11.88;;;;;;;7.09;69.08;100976.44;5030802;28;20056;-80
2021/01/01 11:06:54;;;;;;;22.30;11.88;;;;;;;7.11;69.23;100975.53;5032498;28;20080;-82
2021/01/01 11:09:21;;;;;;;21.88;12.20;;;;;;;7.15;69.27;100971.16;5032516;28;20034;-82
2021/01/01 11:11:48;;;;;;;26.05;12.98;;;;;;;7.13;69.65;100973.78;5038332;22;20036;-82
2021/01/01 11:14:25;;;;;;;22.45;12.75;;;;;;;7.20;69.88;100973.78;5049404;28;20087;-86
2021/01/01 12:21:40;;;;;;;25.15;13.95;;;;;;;8.30;68.20;100950.22;5049219;28;20120;-80
2021/01/01 12:24:03;;;;;;;25.58;13.77;;;;;;;8.31;68.30;100951.97;5061137;28;20029;-81
2021/01/01 12:26:29;;;;;;;23.83;13.13;;;;;;;8.27;68.70;100947.59;5061096;28;20082;-82
2021/01/01 12:28:56;;;;;;;31.75;13.23;;;;;;;8.21;68.17;100951.19;5058779;28;20128;-81
2021/01/01 12:31:23;;;;;;;24.80;13.40;;;;;;;8.18;68.55;100955.59;5066531;28;20373;-80
2021/01/01 12:33:49;;;;;;;20.98;10.13;;;;;;;8.02;68.75;100953.06;5061828;28;20540;-81
2021/01/01 12:36:15;;;;;;;16.60;8.35;;;;;;;7.93;69.53;100956.66;5058224;28;20037;-81
2021/01/01 12:38:41;;;;;;;8.55;6.03;;;;;;;7.94;69.29;100949.63;5056130;28;20103;-82
2021/01/01 12:41:26;;;;;;;6.95;4.35;;;;;;;7.75;68.67;100952.41;5058575;28;20029;-80
2021/01/01 12:43:54;;;;;;;4.57;3.00;;;;;;;7.76;68.62;100948.88;5052041;22;20053;-79
2021/01/01 12:46:20;;;;;;;7.18;3.20;;;;;;;7.73;68.66;100945.38;5038646;28;20130;-79
2021/01/01 12:48:47;;;;;;;6.05;2.92;;;;;;;7.73;68.69;100948.03;5045287;28;20033;-80